sensor_id;sensor_type;location;lat;lon;timestamp;temperature;humidity
43884;DHT22;29544;52.018;5.810;2023-05-16T00:01:31;20.10;59.60
43884;DHT22;29544;52.018;5.810;2023-05-16T00:03:59;20.10;59.60
43884;DHT22;29544;52.018;5.810;2023-05-16T00:06:25;20.10;59.60
43884;DHT22;29544;52.018;5.810;2023-05-16T00:08:51;20.10;59.60
43884;DHT22;29544;52.018;5.810;2023-05-16T00:11:17;20.10;59.60
43884;DHT22;29544;52.018;5.810;2023-05-16T00:13:43;20.00;59.60
43884;DHT22;29544;52.018;5.810;2023-05-16T00:16:15;20.00;59.50
43884;DHT22;29544;52.018;5.810;2023-05-16T00:18:41;20.10;59.60
43884;DHT22;29544;52.018;5.810;2023-05-16T00:21:10;20.10;59.60
43884;DHT22;29544;52.018;5.810;2023-05-16T00:23:36;20.00;59.50
43884;DHT22;29544;52.018;5.810;2023-05-16T00:26:06;20.00;59.50
43884;DHT22;29544;52.018;5.810;2023-05-16T00:28:34;20.00;59.60
43884;DHT22;29544;52.018;5.810;2023-05-16T00:31:00;20.00;59.50
43884;DHT22;29544;52.018;5.810;2023-05-16T00:33:25;20.00;59.40
43884;DHT22;29544;52.018;5.810;2023-05-16T00:35:53;20.00;59.50
43884;DHT22;29544;52.018;5.810;2023-05-16T00:38:19;20.00;59.40
43884;DHT22;29544;52.018;5.810;2023-05-16T00:40:47;20.00;59.40
43884;DHT22;29544;52.018;5.810;2023-05-16T00:43:15;20.00;59.40
43884;DHT22;29544;52.018;5.810;2023-05-16T00:45:41;20.00;59.40
43884;DHT22;29544;52.018;5.810;2023-05-16T00:48:06;20.00;59.50
43884;DHT22;29544;52.018;5.810;2023-05-16T00:50:33;19.90;59.40
43884;DHT22;29544;52.018;5.810;2023-05-16T00:52:59;19.80;59.30
43884;DHT22;29544;52.018;5.810;2023-05-16T00:55:25;20.00;59.40
43884;DHT22;29544;52.018;5.810;2023-05-16T00:57:51;19.90;59.40
43884;DHT22;29544;52.018;5.810;2023-05-16T01:00:20;19.90;59.40
43884;DHT22;29544;52.018;5.810;2023-05-16T01:02:50;19.90;59.30
43884;DHT22;29544;52.018;5.810;2023-05-16T01:05:18;20.00;59.40
43884;DHT22;29544;52.018;5.810;2023-05-16T01:07:44;19.90;59.30
43884;DHT22;29544;52.018;5.810;2023-05-16T01:10:10;19.80;59.20
43884;DHT22;29544;52.018;5.810;2023-05-16T01:15:27;19.80;59.30
43884;DHT22;29544;52.018;5.810;2023-05-16T01:18:11;19.80;59.20
43884;DHT22;29544;52.018;5.810;2023-05-16T01:20:59;19.80;59.20
43884;DHT22;29544;52.018;5.810;2023-05-16T01:26:24;19.90;59.30
43884;DHT22;29544;52.018;5.810;2023-05-16T01:28:52;19.80;59.20
43884;DHT22;29544;52.018;5.810;2023-05-16T01:31:22;19.70;59.20
43884;DHT22;29544;52.018;5.810;2023-05-16T01:33:48;19.70;59.20
43884;DHT22;29544;52.018;5.810;2023-05-16T01:47:14;19.80;59.20
43884;DHT22;29544;52.018;5.810;2023-05-16T01:49:53;19.70;59.10
43884;DHT22;29544;52.018;5.810;2023-05-16T01:52:37;19.70;59.10
43884;DHT22;29544;52.018;5.810;2023-05-16T01:55:10;19.60;59.00
43884;DHT22;29544;52.018;5.810;2023-05-16T01:57:37;19.80;59.10
43884;DHT22;29544;52.018;5.810;2023-05-16T02:00:05;19.50;59.10
43884;DHT22;29544;52.018;5.810;2023-05-16T02:02:34;19.60;59.10
43884;DHT22;29544;52.018;5.810;2023-05-16T02:05:00;19.70;59.10
43884;DHT22;29544;52.018;5.810;2023-05-16T02:07:26;19.50;59.00
43884;DHT22;29544;52.018;5.810;2023-05-16T02:09:51;19.60;59.10
43884;DHT22;29544;52.018;5.810;2023-05-16T02:12:17;19.50;59.00
43884;DHT22;29544;52.018;5.810;2023-05-16T02:14:45;19.60;59.10
43884;DHT22;29544;52.018;5.810;2023-05-16T02:17:11;19.60;59.10
43884;DHT22;29544;52.018;5.810;2023-05-16T02:19:36;19.60;59.00
43884;DHT22;29544;52.018;5.810;2023-05-16T02:22:02;19.50;58.90
43884;DHT22;29544;52.018;5.810;2023-05-16T02:24:28;19.50;59.00
43884;DHT22;29544;52.018;5.810;2023-05-16T02:26:53;19.50;59.00
43884;DHT22;29544;52.018;5.810;2023-05-16T02:29:20;19.50;59.00
43884;DHT22;29544;52.018;5.810;2023-05-16T02:31:48;19.50;58.90
43884;DHT22;29544;52.018;5.810;2023-05-16T02:34:15;19.50;58.90
43884;DHT22;29544;52.018;5.810;2023-05-16T02:36:41;19.50;59.00
43884;DHT22;29544;52.018;5.810;2023-05-16T02:39:09;19.50;58.90
43884;DHT22;29544;52.018;5.810;2023-05-16T02:41:42;19.50;59.00
43884;DHT22;29544;52.018;5.810;2023-05-16T02:44:07;19.50;58.90
43884;DHT22;29544;52.018;5.810;2023-05-16T02:46:33;19.50;58.90
43884;DHT22;29544;52.018;5.810;2023-05-16T02:49:01;19.40;58.80
43884;DHT22;29544;52.018;5.810;2023-05-16T02:51:28;19.30;58.80
43884;DHT22;29544;52.018;5.810;2023-05-16T02:53:58;19.40;58.80
43884;DHT22;29544;52.018;5.810;2023-05-16T02:56:32;19.40;58.80
43884;DHT22;29544;52.018;5.810;2023-05-16T02:59:02;19.30;58.80
43884;DHT22;29544;52.018;5.810;2023-05-16T03:01:31;19.40;58.80
43884;DHT22;29544;52.018;5.810;2023-05-16T03:04:03;19.50;58.90
43884;DHT22;29544;52.018;5.810;2023-05-16T03:06:28;19.30;58.70
43884;DHT22;29544;52.018;5.810;2023-05-16T03:08:57;19.30;58.80
43884;DHT22;29544;52.018;5.810;2023-05-16T03:11:23;19.30;58.80
43884;DHT22;29544;52.018;5.810;2023-05-16T03:13:59;19.30;58.80
43884;DHT22;29544;52.018;5.810;2023-05-16T03:16:25;19.30;58.80
43884;DHT22;29544;52.018;5.810;2023-05-16T03:18:53;19.30;58.70
43884;DHT22;29544;52.018;5.810;2023-05-16T03:21:18;19.30;58.80
43884;DHT22;29544;52.018;5.810;2023-05-16T03:23:46;19.30;58.70
43884;DHT22;29544;52.018;5.810;2023-05-16T03:26:12;19.20;58.60
43884;DHT22;29544;52.018;5.810;2023-05-16T03:28:37;19.20;58.70
43884;DHT22;29544;52.018;5.810;2023-05-16T03:31:03;19.20;58.60
43884;DHT22;29544;52.018;5.810;2023-05-16T03:33:29;19.20;58.70
43884;DHT22;29544;52.018;5.810;2023-05-16T03:35:54;19.20;58.60
43884;DHT22;29544;52.018;5.810;2023-05-16T03:38:20;19.20;58.70
43884;DHT22;29544;52.018;5.810;2023-05-16T03:40:46;19.20;58.70
43884;DHT22;29544;52.018;5.810;2023-05-16T03:43:11;19.20;58.60
43884;DHT22;29544;52.018;5.810;2023-05-16T03:45:37;19.20;59.30
43884;DHT22;29544;52.018;5.810;2023-05-16T03:48:03;19.20;58.60
43884;DHT22;29544;52.018;5.810;2023-05-16T03:50:30;19.20;59.30
43884;DHT22;29544;52.018;5.810;2023-05-16T03:52:56;19.10;58.60
43884;DHT22;29544;52.018;5.810;2023-05-16T03:55:21;19.10;58.60
43884;DHT22;29544;52.018;5.810;2023-05-16T03:57:47;19.10;58.60
43884;DHT22;29544;52.018;5.810;2023-05-16T04:00:17;19.10;58.60
43884;DHT22;29544;52.018;5.810;2023-05-16T04:02:44;19.10;58.60
43884;DHT22;29544;52.018;5.810;2023-05-16T04:05:12;19.10;58.60
43884;DHT22;29544;52.018;5.810;2023-05-16T04:07:39;19.10;58.60
43884;DHT22;29544;52.018;5.810;2023-05-16T04:10:08;19.10;58.60
43884;DHT22;29544;52.018;5.810;2023-05-16T04:12:34;19.10;58.70
43884;DHT22;29544;52.018;5.810;2023-05-16T04:15:02;19.10;58.70
43884;DHT22;29544;52.018;5.810;2023-05-16T04:17:31;19.10;58.60
43884;DHT22;29544;52.018;5.810;2023-05-16T04:19:57;19.10;58.60
43884;DHT22;29544;52.018;5.810;2023-05-16T04:22:24;19.10;58.60
43884;DHT22;29544;52.018;5.810;2023-05-16T04:24:50;19.00;58.60
43884;DHT22;29544;52.018;5.810;2023-05-16T04:27:16;19.10;58.70
43884;DHT22;29544;52.018;5.810;2023-05-16T04:29:48;19.00;58.60
43884;DHT22;29544;52.018;5.810;2023-05-16T04:32:13;19.00;58.60
43884;DHT22;29544;52.018;5.810;2023-05-16T04:34:52;19.00;58.60
43884;DHT22;29544;52.018;5.810;2023-05-16T04:37:18;19.00;58.60
43884;DHT22;29544;52.018;5.810;2023-05-16T04:39:47;18.90;58.50
43884;DHT22;29544;52.018;5.810;2023-05-16T04:42:14;19.00;58.60
43884;DHT22;29544;52.018;5.810;2023-05-16T04:44:43;19.00;58.60
43884;DHT22;29544;52.018;5.810;2023-05-16T04:47:10;19.00;58.60
43884;DHT22;29544;52.018;5.810;2023-05-16T04:49:40;18.90;58.60
43884;DHT22;29544;52.018;5.810;2023-05-16T04:52:06;18.90;58.50
43884;DHT22;29544;52.018;5.810;2023-05-16T04:54:37;18.90;58.50
43884;DHT22;29544;52.018;5.810;2023-05-16T04:57:04;19.00;58.50
43884;DHT22;29544;52.018;5.810;2023-05-16T04:59:30;18.80;58.50
43884;DHT22;29544;52.018;5.810;2023-05-16T05:01:56;18.90;58.50
43884;DHT22;29544;52.018;5.810;2023-05-16T05:04:22;18.90;58.50
43884;DHT22;29544;52.018;5.810;2023-05-16T05:06:50;18.90;58.50
43884;DHT22;29544;52.018;5.810;2023-05-16T05:09:15;18.90;58.50
43884;DHT22;29544;52.018;5.810;2023-05-16T05:11:44;18.90;58.50
43884;DHT22;29544;52.018;5.810;2023-05-16T05:14:11;18.90;58.50
43884;DHT22;29544;52.018;5.810;2023-05-16T05:16:39;18.90;58.50
43884;DHT22;29544;52.018;5.810;2023-05-16T05:19:05;18.80;58.50
43884;DHT22;29544;52.018;5.810;2023-05-16T05:21:31;18.90;58.50
43884;DHT22;29544;52.018;5.810;2023-05-16T05:23:57;18.70;58.50
43884;DHT22;29544;52.018;5.810;2023-05-16T05:26:22;18.80;58.40
43884;DHT22;29544;52.018;5.810;2023-05-16T05:28:51;18.80;58.40
43884;DHT22;29544;52.018;5.810;2023-05-16T05:31:17;19.00;58.50
43884;DHT22;29544;52.018;5.810;2023-05-16T05:33:46;18.80;58.40
43884;DHT22;29544;52.018;5.810;2023-05-16T05:36:11;18.70;58.40
43884;DHT22;29544;52.018;5.810;2023-05-16T05:38:37;18.80;58.40
43884;DHT22;29544;52.018;5.810;2023-05-16T05:41:07;18.80;58.40
43884;DHT22;29544;52.018;5.810;2023-05-16T05:43:34;18.80;58.40
43884;DHT22;29544;52.018;5.810;2023-05-16T05:46:00;18.80;58.30
43884;DHT22;29544;52.018;5.810;2023-05-16T05:48:28;18.80;58.40
43884;DHT22;29544;52.018;5.810;2023-05-16T05:50:54;18.80;58.40
43884;DHT22;29544;52.018;5.810;2023-05-16T05:53:20;18.80;58.40
43884;DHT22;29544;52.018;5.810;2023-05-16T05:55:49;18.70;58.40
43884;DHT22;29544;52.018;5.810;2023-05-16T05:58:18;18.70;58.30
43884;DHT22;29544;52.018;5.810;2023-05-16T06:01:23;18.70;58.30
43884;DHT22;29544;52.018;5.810;2023-05-16T06:04:27;18.70;58.30
43884;DHT22;29544;52.018;5.810;2023-05-16T06:06:53;18.70;58.40
43884;DHT22;29544;52.018;5.810;2023-05-16T06:13:04;18.70;58.40
43884;DHT22;29544;52.018;5.810;2023-05-16T06:16:22;18.70;58.40
43884;DHT22;29544;52.018;5.810;2023-05-16T06:18:49;18.70;58.40
43884;DHT22;29544;52.018;5.810;2023-05-16T06:21:17;18.70;58.40
43884;DHT22;29544;52.018;5.810;2023-05-16T06:23:43;18.70;58.40
43884;DHT22;29544;52.018;5.810;2023-05-16T06:26:09;18.70;58.30
43884;DHT22;29544;52.018;5.810;2023-05-16T06:28:35;18.70;58.30
43884;DHT22;29544;52.018;5.810;2023-05-16T06:31:00;18.70;58.30
43884;DHT22;29544;52.018;5.810;2023-05-16T06:33:26;18.70;58.30
43884;DHT22;29544;52.018;5.810;2023-05-16T06:35:52;18.70;58.20
43884;DHT22;29544;52.018;5.810;2023-05-16T06:38:18;18.60;58.00
43884;DHT22;29544;52.018;5.810;2023-05-16T06:40:44;18.60;57.90
43884;DHT22;29544;52.018;5.810;2023-05-16T06:43:09;18.60;57.90
43884;DHT22;29544;52.018;5.810;2023-05-16T06:45:36;18.60;57.80
43884;DHT22;29544;52.018;5.810;2023-05-16T06:48:02;18.60;57.80
43884;DHT22;29544;52.018;5.810;2023-05-16T06:50:28;18.60;57.80
43884;DHT22;29544;52.018;5.810;2023-05-16T06:52:53;18.60;57.80
43884;DHT22;29544;52.018;5.810;2023-05-16T06:55:19;18.60;57.80
43884;DHT22;29544;52.018;5.810;2023-05-16T06:57:45;18.60;57.80
43884;DHT22;29544;52.018;5.810;2023-05-16T07:00:11;18.60;57.80
43884;DHT22;29544;52.018;5.810;2023-05-16T07:02:37;18.60;57.70
43884;DHT22;29544;52.018;5.810;2023-05-16T07:05:03;18.70;57.80
43884;DHT22;29544;52.018;5.810;2023-05-16T07:07:28;18.60;57.70
43884;DHT22;29544;52.018;5.810;2023-05-16T07:10:02;18.60;57.60
43884;DHT22;29544;52.018;5.810;2023-05-16T07:12:28;18.60;57.50
43884;DHT22;29544;52.018;5.810;2023-05-16T07:14:53;18.60;57.40
43884;DHT22;29544;52.018;5.810;2023-05-16T07:17:19;18.60;57.50
43884;DHT22;29544;52.018;5.810;2023-05-16T07:19:53;18.60;57.40
43884;DHT22;29544;52.018;5.810;2023-05-16T07:22:19;18.50;57.30
43884;DHT22;29544;52.018;5.810;2023-05-16T07:24:44;18.60;57.30
43884;DHT22;29544;52.018;5.810;2023-05-16T07:27:10;18.60;57.20
43884;DHT22;29544;52.018;5.810;2023-05-16T07:29:35;18.60;57.20
43884;DHT22;29544;52.018;5.810;2023-05-16T07:32:05;18.60;57.20
43884;DHT22;29544;52.018;5.810;2023-05-16T07:34:30;18.60;57.10
43884;DHT22;29544;52.018;5.810;2023-05-16T07:36:56;18.60;57.10
43884;DHT22;29544;52.018;5.810;2023-05-16T07:39:21;18.60;57.10
43884;DHT22;29544;52.018;5.810;2023-05-16T07:41:47;18.50;57.00
43884;DHT22;29544;52.018;5.810;2023-05-16T07:44:13;18.60;57.00
43884;DHT22;29544;52.018;5.810;2023-05-16T07:46:38;18.60;57.00
43884;DHT22;29544;52.018;5.810;2023-05-16T07:49:07;18.60;57.00
43884;DHT22;29544;52.018;5.810;2023-05-16T07:51:32;18.60;56.90
43884;DHT22;29544;52.018;5.810;2023-05-16T07:53:58;18.60;56.90
43884;DHT22;29544;52.018;5.810;2023-05-16T07:56:26;18.60;56.90
43884;DHT22;29544;52.018;5.810;2023-05-16T07:58:53;18.60;56.90
43884;DHT22;29544;52.018;5.810;2023-05-16T08:01:19;18.60;56.90
43884;DHT22;29544;52.018;5.810;2023-05-16T08:03:44;18.60;56.90
43884;DHT22;29544;52.018;5.810;2023-05-16T08:06:10;18.60;56.80
43884;DHT22;29544;52.018;5.810;2023-05-16T08:08:36;18.60;56.70
43884;DHT22;29544;52.018;5.810;2023-05-16T08:11:04;18.60;56.80
43884;DHT22;29544;52.018;5.810;2023-05-16T08:13:30;18.60;56.70
43884;DHT22;29544;52.018;5.810;2023-05-16T08:15:56;18.60;56.80
43884;DHT22;29544;52.018;5.810;2023-05-16T08:18:27;18.70;56.90
43884;DHT22;29544;52.018;5.810;2023-05-16T08:20:53;18.60;56.80
43884;DHT22;29544;52.018;5.810;2023-05-16T08:23:18;18.60;56.80
43884;DHT22;29544;52.018;5.810;2023-05-16T08:25:44;18.60;56.80
43884;DHT22;29544;52.018;5.810;2023-05-16T08:28:10;18.60;56.80
43884;DHT22;29544;52.018;5.810;2023-05-16T08:30:35;18.60;56.80
43884;DHT22;29544;52.018;5.810;2023-05-16T08:33:01;18.60;56.80
43884;DHT22;29544;52.018;5.810;2023-05-16T08:35:29;18.60;56.80
43884;DHT22;29544;52.018;5.810;2023-05-16T08:37:55;18.60;56.80
43884;DHT22;29544;52.018;5.810;2023-05-16T08:40:25;18.70;56.90
43884;DHT22;29544;52.018;5.810;2023-05-16T08:42:50;18.70;56.90
43884;DHT22;29544;52.018;5.810;2023-05-16T08:45:16;18.70;56.90
43884;DHT22;29544;52.018;5.810;2023-05-16T08:47:43;18.60;56.90
43884;DHT22;29544;52.018;5.810;2023-05-16T08:50:10;18.50;56.70
43884;DHT22;29544;52.018;5.810;2023-05-16T08:52:38;18.70;56.70
43884;DHT22;29544;52.018;5.810;2023-05-16T08:55:10;18.70;56.60
43884;DHT22;29544;52.018;5.810;2023-05-16T08:57:36;18.70;56.60
43884;DHT22;29544;52.018;5.810;2023-05-16T09:00:02;18.70;56.80
43884;DHT22;29544;52.018;5.810;2023-05-16T09:02:39;18.70;56.70
43884;DHT22;29544;52.018;5.810;2023-05-16T09:05:07;18.80;56.90
43884;DHT22;29544;52.018;5.810;2023-05-16T09:07:34;18.70;56.90
43884;DHT22;29544;52.018;5.810;2023-05-16T09:09:59;18.70;56.90
43884;DHT22;29544;52.018;5.810;2023-05-16T09:12:25;18.80;57.00
43884;DHT22;29544;52.018;5.810;2023-05-16T09:14:51;18.70;56.90
43884;DHT22;29544;52.018;5.810;2023-05-16T09:17:17;18.70;57.50
43884;DHT22;29544;52.018;5.810;2023-05-16T09:19:43;18.70;56.90
43884;DHT22;29544;52.018;5.810;2023-05-16T09:22:11;18.70;57.00
43884;DHT22;29544;52.018;5.810;2023-05-16T09:24:42;18.70;57.00
43884;DHT22;29544;52.018;5.810;2023-05-16T09:29:42;18.70;57.00
43884;DHT22;29544;52.018;5.810;2023-05-16T09:32:13;18.90;57.00
43884;DHT22;29544;52.018;5.810;2023-05-16T09:37:09;18.70;56.90
43884;DHT22;29544;52.018;5.810;2023-05-16T09:39:35;18.80;56.90
43884;DHT22;29544;52.018;5.810;2023-05-16T09:42:01;18.70;56.90
43884;DHT22;29544;52.018;5.810;2023-05-16T09:44:27;18.80;57.00
43884;DHT22;29544;52.018;5.810;2023-05-16T09:46:53;18.70;56.90
43884;DHT22;29544;52.018;5.810;2023-05-16T09:49:22;18.80;56.90
43884;DHT22;29544;52.018;5.810;2023-05-16T09:51:52;18.80;56.80
43884;DHT22;29544;52.018;5.810;2023-05-16T09:54:29;18.80;56.70
43884;DHT22;29544;52.018;5.810;2023-05-16T09:56:58;18.80;56.70
43884;DHT22;29544;52.018;5.810;2023-05-16T09:59:27;18.80;56.70
43884;DHT22;29544;52.018;5.810;2023-05-16T10:01:52;18.80;57.30
43884;DHT22;29544;52.018;5.810;2023-05-16T10:04:21;18.80;56.60
43884;DHT22;29544;52.018;5.810;2023-05-16T10:06:49;18.90;56.60
43884;DHT22;29544;52.018;5.810;2023-05-16T10:09:17;18.90;56.60
43884;DHT22;29544;52.018;5.810;2023-05-16T10:11:44;18.80;56.50
43884;DHT22;29544;52.018;5.810;2023-05-16T10:14:11;18.80;56.50
43884;DHT22;29544;52.018;5.810;2023-05-16T10:16:42;18.80;56.60
43884;DHT22;29544;52.018;5.810;2023-05-16T10:19:08;18.90;56.50
43884;DHT22;29544;52.018;5.810;2023-05-16T10:21:39;18.90;56.60
43884;DHT22;29544;52.018;5.810;2023-05-16T10:24:10;18.80;56.60
43884;DHT22;29544;52.018;5.810;2023-05-16T10:26:38;18.90;56.60
43884;DHT22;29544;52.018;5.810;2023-05-16T10:29:03;18.90;56.50
43884;DHT22;29544;52.018;5.810;2023-05-16T10:31:31;18.90;56.30
43884;DHT22;29544;52.018;5.810;2023-05-16T10:33:57;19.00;56.20
43884;DHT22;29544;52.018;5.810;2023-05-16T10:36:23;18.90;56.20
43884;DHT22;29544;52.018;5.810;2023-05-16T10:38:50;19.10;56.30
43884;DHT22;29544;52.018;5.810;2023-05-16T10:41:16;19.00;56.20
43884;DHT22;29544;52.018;5.810;2023-05-16T10:44:03;19.00;56.20
43884;DHT22;29544;52.018;5.810;2023-05-16T10:46:30;19.00;56.30
43884;DHT22;29544;52.018;5.810;2023-05-16T10:48:56;19.10;56.30
43884;DHT22;29544;52.018;5.810;2023-05-16T10:51:34;19.20;56.40
43884;DHT22;29544;52.018;5.810;2023-05-16T10:54:09;19.10;56.30
43884;DHT22;29544;52.018;5.810;2023-05-16T10:56:35;19.10;56.30
43884;DHT22;29544;52.018;5.810;2023-05-16T10:59:01;19.20;56.30
43884;DHT22;29544;52.018;5.810;2023-05-16T11:01:34;19.10;56.30
43884;DHT22;29544;52.018;5.810;2023-05-16T11:04:04;19.20;56.40
43884;DHT22;29544;52.018;5.810;2023-05-16T11:06:35;19.20;56.40
43884;DHT22;29544;52.018;5.810;2023-05-16T11:14:20;19.20;56.20
43884;DHT22;29544;52.018;5.810;2023-05-16T11:22:20;19.30;56.30
43884;DHT22;29544;52.018;5.810;2023-05-16T11:25:00;19.30;56.30
43884;DHT22;29544;52.018;5.810;2023-05-16T11:27:31;19.30;56.30
43884;DHT22;29544;52.018;5.810;2023-05-16T11:30:18;19.30;56.30
43884;DHT22;29544;52.018;5.810;2023-05-16T11:32:45;19.30;56.20
43884;DHT22;29544;52.018;5.810;2023-05-16T11:35:13;19.30;56.20
43884;DHT22;29544;52.018;5.810;2023-05-16T11:37:40;19.30;56.20
43884;DHT22;29544;52.018;5.810;2023-05-16T11:40:07;19.30;56.10
43884;DHT22;29544;52.018;5.810;2023-05-16T11:42:37;19.30;56.10
43884;DHT22;29544;52.018;5.810;2023-05-16T11:45:08;19.30;56.00
43884;DHT22;29544;52.018;5.810;2023-05-16T11:47:38;19.30;56.00
43884;DHT22;29544;52.018;5.810;2023-05-16T11:50:06;19.30;56.00
43884;DHT22;29544;52.018;5.810;2023-05-16T11:52:34;19.30;55.90
43884;DHT22;29544;52.018;5.810;2023-05-16T11:55:00;19.30;55.90
43884;DHT22;29544;52.018;5.810;2023-05-16T11:57:32;19.30;55.90
43884;DHT22;29544;52.018;5.810;2023-05-16T12:00:02;19.40;56.00
43884;DHT22;29544;52.018;5.810;2023-05-16T12:02:30;19.40;56.00
43884;DHT22;29544;52.018;5.810;2023-05-16T12:04:57;19.30;55.90
43884;DHT22;29544;52.018;5.810;2023-05-16T12:07:27;19.50;56.00
43884;DHT22;29544;52.018;5.810;2023-05-16T12:09:53;19.40;55.90
43884;DHT22;29544;52.018;5.810;2023-05-16T12:12:20;19.50;55.90
43884;DHT22;29544;52.018;5.810;2023-05-16T12:14:46;19.50;55.90
43884;DHT22;29544;52.018;5.810;2023-05-16T12:17:13;19.50;55.90
43884;DHT22;29544;52.018;5.810;2023-05-16T12:19:39;19.50;55.90
43884;DHT22;29544;52.018;5.810;2023-05-16T12:22:18;19.40;55.80
43884;DHT22;29544;52.018;5.810;2023-05-16T12:24:44;19.40;55.80
43884;DHT22;29544;52.018;5.810;2023-05-16T12:27:10;19.60;55.90
43884;DHT22;29544;52.018;5.810;2023-05-16T12:29:35;19.50;55.80
43884;DHT22;29544;52.018;5.810;2023-05-16T12:32:01;19.40;55.70
43884;DHT22;29544;52.018;5.810;2023-05-16T12:34:28;19.40;55.70
43884;DHT22;29544;52.018;5.810;2023-05-16T12:36:54;19.50;55.70
43884;DHT22;29544;52.018;5.810;2023-05-16T12:39:20;19.40;55.70
43884;DHT22;29544;52.018;5.810;2023-05-16T12:41:47;19.40;55.60
43884;DHT22;29544;52.018;5.810;2023-05-16T12:44:17;19.50;55.60
43884;DHT22;29544;52.018;5.810;2023-05-16T12:46:46;19.40;55.50
43884;DHT22;29544;52.018;5.810;2023-05-16T12:49:14;19.40;55.50
43884;DHT22;29544;52.018;5.810;2023-05-16T12:51:48;19.40;55.50
43884;DHT22;29544;52.018;5.810;2023-05-16T12:54:14;19.50;55.50
43884;DHT22;29544;52.018;5.810;2023-05-16T12:56:40;19.40;55.40
43884;DHT22;29544;52.018;5.810;2023-05-16T12:59:07;19.30;55.30
43884;DHT22;29544;52.018;5.810;2023-05-16T13:01:33;19.30;55.20
43884;DHT22;29544;52.018;5.810;2023-05-16T13:04:00;19.30;55.20
43884;DHT22;29544;52.018;5.810;2023-05-16T13:06:26;19.30;55.30
43884;DHT22;29544;52.018;5.810;2023-05-16T13:08:52;19.30;55.00
43884;DHT22;29544;52.018;5.810;2023-05-16T13:11:18;19.40;54.90
43884;DHT22;29544;52.018;5.810;2023-05-16T13:13:43;19.50;54.90
43884;DHT22;29544;52.018;5.810;2023-05-16T13:16:09;19.40;55.00
43884;DHT22;29544;52.018;5.810;2023-05-16T13:18:35;19.40;55.00
43884;DHT22;29544;52.018;5.810;2023-05-16T13:21:08;19.50;55.90
43884;DHT22;29544;52.018;5.810;2023-05-16T13:23:34;19.40;55.20
43884;DHT22;29544;52.018;5.810;2023-05-16T13:26:00;19.40;55.30
43884;DHT22;29544;52.018;5.810;2023-05-16T13:28:25;19.50;55.30
43884;DHT22;29544;52.018;5.810;2023-05-16T13:30:52;19.50;55.30
43884;DHT22;29544;52.018;5.810;2023-05-16T13:33:21;19.40;55.30
43884;DHT22;29544;52.018;5.810;2023-05-16T13:35:49;19.40;55.30
43884;DHT22;29544;52.018;5.810;2023-05-16T13:38:15;19.40;55.30
43884;DHT22;29544;52.018;5.810;2023-05-16T13:40:41;19.40;55.20
43884;DHT22;29544;52.018;5.810;2023-05-16T13:43:07;19.50;55.30
43884;DHT22;29544;52.018;5.810;2023-05-16T13:45:32;19.40;55.20
43884;DHT22;29544;52.018;5.810;2023-05-16T13:47:59;19.50;55.30
43884;DHT22;29544;52.018;5.810;2023-05-16T13:50:26;19.40;55.30
43884;DHT22;29544;52.018;5.810;2023-05-16T13:52:52;19.40;55.20
43884;DHT22;29544;52.018;5.810;2023-05-16T13:55:19;19.50;55.20
43884;DHT22;29544;52.018;5.810;2023-05-16T13:57:46;19.50;55.20
43884;DHT22;29544;52.018;5.810;2023-05-16T14:00:13;19.40;55.10
43884;DHT22;29544;52.018;5.810;2023-05-16T14:02:39;19.40;55.10
43884;DHT22;29544;52.018;5.810;2023-05-16T14:05:06;19.40;55.10
43884;DHT22;29544;52.018;5.810;2023-05-16T14:07:31;19.40;55.10
43884;DHT22;29544;52.018;5.810;2023-05-16T14:09:57;19.40;55.10
43884;DHT22;29544;52.018;5.810;2023-05-16T14:12:22;19.30;55.00
43884;DHT22;29544;52.018;5.810;2023-05-16T14:14:49;19.30;54.90
43884;DHT22;29544;52.018;5.810;2023-05-16T14:17:15;19.30;55.10
43884;DHT22;29544;52.018;5.810;2023-05-16T14:19:42;19.40;55.20
43884;DHT22;29544;52.018;5.810;2023-05-16T14:22:10;19.50;55.20
43884;DHT22;29544;52.018;5.810;2023-05-16T14:24:36;19.30;55.00
43884;DHT22;29544;52.018;5.810;2023-05-16T14:27:01;19.30;55.10
43884;DHT22;29544;52.018;5.810;2023-05-16T14:29:27;19.30;55.10
43884;DHT22;29544;52.018;5.810;2023-05-16T14:31:53;19.30;55.10
43884;DHT22;29544;52.018;5.810;2023-05-16T14:34:19;19.40;55.10
43884;DHT22;29544;52.018;5.810;2023-05-16T14:36:45;19.30;55.00
43884;DHT22;29544;52.018;5.810;2023-05-16T14:39:10;19.30;55.00
43884;DHT22;29544;52.018;5.810;2023-05-16T14:41:36;19.30;55.10
43884;DHT22;29544;52.018;5.810;2023-05-16T14:44:04;19.30;55.00
43884;DHT22;29544;52.018;5.810;2023-05-16T14:46:33;19.30;55.00
43884;DHT22;29544;52.018;5.810;2023-05-16T14:48:59;19.30;55.00
43884;DHT22;29544;52.018;5.810;2023-05-16T14:51:25;19.30;55.00
43884;DHT22;29544;52.018;5.810;2023-05-16T14:53:58;19.30;55.00
43884;DHT22;29544;52.018;5.810;2023-05-16T14:56:23;19.30;54.90
43884;DHT22;29544;52.018;5.810;2023-05-16T14:58:51;19.20;54.80
43884;DHT22;29544;52.018;5.810;2023-05-16T15:01:16;19.30;54.90
43884;DHT22;29544;52.018;5.810;2023-05-16T15:03:42;19.30;54.70
43884;DHT22;29544;52.018;5.810;2023-05-16T15:06:07;19.30;54.70
43884;DHT22;29544;52.018;5.810;2023-05-16T15:08:33;19.30;54.70
43884;DHT22;29544;52.018;5.810;2023-05-16T15:10:59;19.30;54.70
43884;DHT22;29544;52.018;5.810;2023-05-16T15:13:25;19.20;54.40
43884;DHT22;29544;52.018;5.810;2023-05-16T15:15:51;19.20;54.50
43884;DHT22;29544;52.018;5.810;2023-05-16T15:18:16;19.20;54.50
43884;DHT22;29544;52.018;5.810;2023-05-16T15:20:42;19.30;54.60
43884;DHT22;29544;52.018;5.810;2023-05-16T15:23:10;19.20;54.50
43884;DHT22;29544;52.018;5.810;2023-05-16T15:25:43;19.20;54.40
43884;DHT22;29544;52.018;5.810;2023-05-16T15:28:09;19.20;54.60
43884;DHT22;29544;52.018;5.810;2023-05-16T15:30:35;19.20;54.40
43884;DHT22;29544;52.018;5.810;2023-05-16T15:33:00;19.20;54.40
43884;DHT22;29544;52.018;5.810;2023-05-16T15:35:26;19.20;54.50
43884;DHT22;29544;52.018;5.810;2023-05-16T15:37:53;19.30;55.60
43884;DHT22;29544;52.018;5.810;2023-05-16T15:40:21;19.20;56.00
43884;DHT22;29544;52.018;5.810;2023-05-16T15:42:47;19.40;56.40
43884;DHT22;29544;52.018;5.810;2023-05-16T15:45:12;19.30;56.50
43884;DHT22;29544;52.018;5.810;2023-05-16T15:47:38;19.20;56.40
43884;DHT22;29544;52.018;5.810;2023-05-16T15:50:07;19.20;56.20
43884;DHT22;29544;52.018;5.810;2023-05-16T15:52:32;19.20;55.90
43884;DHT22;29544;52.018;5.810;2023-05-16T15:55:01;19.20;55.90
43884;DHT22;29544;52.018;5.810;2023-05-16T15:57:29;19.20;56.30
43884;DHT22;29544;52.018;5.810;2023-05-16T15:59:55;19.30;55.60
43884;DHT22;29544;52.018;5.810;2023-05-16T16:02:21;19.20;55.40
43884;DHT22;29544;52.018;5.810;2023-05-16T16:04:46;19.30;55.40
43884;DHT22;29544;52.018;5.810;2023-05-16T16:07:13;19.20;55.30
43884;DHT22;29544;52.018;5.810;2023-05-16T16:09:39;19.20;55.30